ENML/MOL METAR and TAF weather

Enter ICAO airport designator
Station Type Date Time Source
ENML METAR 2019/04/19 22:50 UTC NOAA

ENML 192250Z AUTO 04008KT 9999NDV NCD 06/01 Q1034


Station Type Date Time Source
ENML Decoded METAR 2019/04/19 22:50 UTC NOAA

Molde / Aro, Norway (ENML) 62-45N 007-16E 3M
Apr 19, 2019 - 06:50 PM EDT / 2019.04.19 2250 UTC
Wind: from the NE (040 degrees) at 9 MPH (8 KT):0
Temperature: 42 F (6 C)
Dew Point: 33 F (1 C)
Relative Humidity: 70%
Pressure (altimeter): 30.53 in. Hg (1034 hPa)
ob: ENML 192250Z AUTO 04008KT 9999NDV NCD 06/01 Q1034
cycle: 23

Station Type Date Time Source
ENML TAF UTC NOAA

Error!

Example: see airport list